sensor_id;sensor_type;location;lat;lon;timestamp;P1;durP1;ratioP1;P2;durP2;ratioP2
36923;SDS011;22841;50.252;18.688;2022-09-09T00:01:02;44.20;;;16.88;;
36923;SDS011;22841;50.252;18.688;2022-09-09T00:03:47;53.97;;;18.73;;
36923;SDS011;22841;50.252;18.688;2022-09-09T00:06:21;74.28;;;19.85;;
36923;SDS011;22841;50.252;18.688;2022-09-09T00:08:53;71.15;;;20.63;;
36923;SDS011;22841;50.252;18.688;2022-09-09T00:11:40;49.20;;;17.60;;
36923;SDS011;22841;50.252;18.688;2022-09-09T00:14:54;66.63;;;17.70;;
36923;SDS011;22841;50.252;18.688;2022-09-09T00:20:04;68.10;;;19.05;;
36923;SDS011;22841;50.252;18.688;2022-09-09T00:22:59;27.63;;;13.63;;
36923;SDS011;22841;50.252;18.688;2022-09-09T00:25:40;47.30;;;16.48;;
36923;SDS011;22841;50.252;18.688;2022-09-09T00:28:24;31.38;;;14.30;;
36923;SDS011;22841;50.252;18.688;2022-09-09T00:30:52;133.65;;;20.05;;
36923;SDS011;22841;50.252;18.688;2022-09-09T00:33:20;37.17;;;15.75;;
36923;SDS011;22841;50.252;18.688;2022-09-09T00:35:54;48.60;;;15.48;;
36923;SDS011;22841;50.252;18.688;2022-09-09T00:38:24;23.67;;;13.57;;
36923;SDS011;22841;50.252;18.688;2022-09-09T00:41:00;39.03;;;17.38;;
36923;SDS011;22841;50.252;18.688;2022-09-09T00:43:40;36.15;;;15.45;;
36923;SDS011;22841;50.252;18.688;2022-09-09T00:49:09;62.38;;;18.42;;
36923;SDS011;22841;50.252;18.688;2022-09-09T00:51:46;53.97;;;17.83;;
36923;SDS011;22841;50.252;18.688;2022-09-09T00:59:28;89.85;;;18.48;;
36923;SDS011;22841;50.252;18.688;2022-09-09T01:02:07;62.63;;;19.20;;
36923;SDS011;22841;50.252;18.688;2022-09-09T01:04:47;47.50;;;18.92;;
36923;SDS011;22841;50.252;18.688;2022-09-09T01:07:17;36.17;;;16.80;;
36923;SDS011;22841;50.252;18.688;2022-09-09T01:09:52;89.15;;;18.98;;
36923;SDS011;22841;50.252;18.688;2022-09-09T01:12:24;90.82;;;17.27;;
36923;SDS011;22841;50.252;18.688;2022-09-09T01:17:48;141.32;;;22.40;;
36923;SDS011;22841;50.252;18.688;2022-09-09T01:28:33;69.28;;;16.30;;
36923;SDS011;22841;50.252;18.688;2022-09-09T01:31:03;38.85;;;16.70;;
36923;SDS011;22841;50.252;18.688;2022-09-09T01:33:31;28.02;;;15.40;;
36923;SDS011;22841;50.252;18.688;2022-09-09T01:35:59;27.95;;;16.05;;
36923;SDS011;22841;50.252;18.688;2022-09-09T01:38:30;32.72;;;15.88;;
36923;SDS011;22841;50.252;18.688;2022-09-09T01:40:59;65.80;;;19.23;;
36923;SDS011;22841;50.252;18.688;2022-09-09T01:43:26;43.53;;;17.08;;
36923;SDS011;22841;50.252;18.688;2022-09-09T01:45:53;59.55;;;18.77;;
36923;SDS011;22841;50.252;18.688;2022-09-09T01:48:21;23.88;;;14.23;;
36923;SDS011;22841;50.252;18.688;2022-09-09T01:50:52;25.75;;;14.30;;
36923;SDS011;22841;50.252;18.688;2022-09-09T01:53:18;48.88;;;16.95;;
36923;SDS011;22841;50.252;18.688;2022-09-09T01:56:33;48.30;;;16.40;;
36923;SDS011;22841;50.252;18.688;2022-09-09T02:04:19;35.20;;;14.27;;
36923;SDS011;22841;50.252;18.688;2022-09-09T02:06:59;61.10;;;16.73;;
36923;SDS011;22841;50.252;18.688;2022-09-09T02:09:26;43.08;;;15.00;;
36923;SDS011;22841;50.252;18.688;2022-09-09T02:12:11;47.40;;;16.17;;
36923;SDS011;22841;50.252;18.688;2022-09-09T02:14:46;38.53;;;15.45;;
36923;SDS011;22841;50.252;18.688;2022-09-09T02:17:18;20.67;;;12.25;;
36923;SDS011;22841;50.252;18.688;2022-09-09T02:19:55;33.05;;;13.32;;
36923;SDS011;22841;50.252;18.688;2022-09-09T02:22:31;28.48;;;13.13;;
36923;SDS011;22841;50.252;18.688;2022-09-09T02:25:00;25.23;;;13.55;;
36923;SDS011;22841;50.252;18.688;2022-09-09T02:27:26;19.50;;;12.32;;
36923;SDS011;22841;50.252;18.688;2022-09-09T02:29:53;43.05;;;13.82;;
36923;SDS011;22841;50.252;18.688;2022-09-09T02:32:22;27.50;;;12.55;;
36923;SDS011;22841;50.252;18.688;2022-09-09T02:34:51;17.95;;;11.73;;
36923;SDS011;22841;50.252;18.688;2022-09-09T02:39:52;51.00;;;13.30;;
36923;SDS011;22841;50.252;18.688;2022-09-09T02:42:18;14.82;;;11.73;;
36923;SDS011;22841;50.252;18.688;2022-09-09T02:44:44;28.67;;;11.90;;
36923;SDS011;22841;50.252;18.688;2022-09-09T02:47:15;30.05;;;11.52;;
36923;SDS011;22841;50.252;18.688;2022-09-09T02:57:53;16.70;;;11.60;;
36923;SDS011;22841;50.252;18.688;2022-09-09T03:00:24;21.02;;;11.35;;
36923;SDS011;22841;50.252;18.688;2022-09-09T03:02:51;27.60;;;12.43;;
36923;SDS011;22841;50.252;18.688;2022-09-09T03:05:20;17.25;;;11.10;;
36923;SDS011;22841;50.252;18.688;2022-09-09T03:07:46;47.35;;;12.50;;
36923;SDS011;22841;50.252;18.688;2022-09-09T03:10:12;54.35;;;13.48;;
36923;SDS011;22841;50.252;18.688;2022-09-09T03:12:38;58.50;;;13.80;;
36923;SDS011;22841;50.252;18.688;2022-09-09T03:15:05;34.13;;;12.43;;
36923;SDS011;22841;50.252;18.688;2022-09-09T03:17:32;42.78;;;11.65;;
36923;SDS011;22841;50.252;18.688;2022-09-09T03:19:58;40.45;;;12.45;;
36923;SDS011;22841;50.252;18.688;2022-09-09T03:22:24;69.47;;;13.80;;
36923;SDS011;22841;50.252;18.688;2022-09-09T03:24:51;72.88;;;14.18;;
36923;SDS011;22841;50.252;18.688;2022-09-09T03:27:17;25.65;;;11.73;;
36923;SDS011;22841;50.252;18.688;2022-09-09T03:29:45;30.05;;;12.23;;
36923;SDS011;22841;50.252;18.688;2022-09-09T03:32:12;27.50;;;11.23;;
36923;SDS011;22841;50.252;18.688;2022-09-09T03:34:38;21.90;;;12.23;;
36923;SDS011;22841;50.252;18.688;2022-09-09T03:37:07;22.15;;;10.15;;
36923;SDS011;22841;50.252;18.688;2022-09-09T03:39:33;14.43;;;9.80;;
36923;SDS011;22841;50.252;18.688;2022-09-09T03:41:59;26.40;;;10.05;;
36923;SDS011;22841;50.252;18.688;2022-09-09T03:44:29;27.98;;;12.70;;
36923;SDS011;22841;50.252;18.688;2022-09-09T03:46:56;39.28;;;13.18;;
36923;SDS011;22841;50.252;18.688;2022-09-09T03:49:26;37.22;;;12.30;;
36923;SDS011;22841;50.252;18.688;2022-09-09T03:51:57;20.02;;;12.15;;
36923;SDS011;22841;50.252;18.688;2022-09-09T03:54:24;83.18;;;15.43;;
36923;SDS011;22841;50.252;18.688;2022-09-09T03:56:51;65.43;;;16.67;;
36923;SDS011;22841;50.252;18.688;2022-09-09T03:59:17;26.23;;;13.57;;
36923;SDS011;22841;50.252;18.688;2022-09-09T04:01:43;44.13;;;14.52;;
36923;SDS011;22841;50.252;18.688;2022-09-09T04:04:09;48.33;;;16.15;;
36923;SDS011;22841;50.252;18.688;2022-09-09T04:06:37;52.13;;;17.13;;
36923;SDS011;22841;50.252;18.688;2022-09-09T04:09:03;48.63;;;15.77;;
36923;SDS011;22841;50.252;18.688;2022-09-09T04:11:29;53.22;;;16.95;;
36923;SDS011;22841;50.252;18.688;2022-09-09T04:13:56;56.00;;;17.35;;
36923;SDS011;22841;50.252;18.688;2022-09-09T04:16:22;72.00;;;18.85;;
36923;SDS011;22841;50.252;18.688;2022-09-09T04:18:48;33.10;;;15.57;;
36923;SDS011;22841;50.252;18.688;2022-09-09T04:21:16;53.58;;;17.20;;
36923;SDS011;22841;50.252;18.688;2022-09-09T04:23:42;24.17;;;16.05;;
36923;SDS011;22841;50.252;18.688;2022-09-09T04:26:08;38.17;;;18.38;;
36923;SDS011;22841;50.252;18.688;2022-09-09T04:28:36;87.28;;;21.00;;
36923;SDS011;22841;50.252;18.688;2022-09-09T04:31:06;32.60;;;16.90;;
36923;SDS011;22841;50.252;18.688;2022-09-09T04:33:34;41.97;;;17.10;;
36923;SDS011;22841;50.252;18.688;2022-09-09T04:36:00;82.18;;;22.95;;
36923;SDS011;22841;50.252;18.688;2022-09-09T04:38:27;60.90;;;21.85;;
36923;SDS011;22841;50.252;18.688;2022-09-09T04:40:53;87.07;;;22.85;;
36923;SDS011;22841;50.252;18.688;2022-09-09T04:43:19;64.05;;;24.13;;
36923;SDS011;22841;50.252;18.688;2022-09-09T04:45:48;77.35;;;24.73;;
36923;SDS011;22841;50.252;18.688;2022-09-09T04:48:14;57.17;;;23.75;;
36923;SDS011;22841;50.252;18.688;2022-09-09T04:50:41;74.68;;;26.60;;
36923;SDS011;22841;50.252;18.688;2022-09-09T04:53:07;57.53;;;25.00;;
36923;SDS011;22841;50.252;18.688;2022-09-09T04:55:33;57.15;;;24.30;;
36923;SDS011;22841;50.252;18.688;2022-09-09T04:58:07;89.80;;;26.70;;
36923;SDS011;22841;50.252;18.688;2022-09-09T05:00:34;63.15;;;25.35;;
36923;SDS011;22841;50.252;18.688;2022-09-09T05:03:04;59.03;;;26.08;;
36923;SDS011;22841;50.252;18.688;2022-09-09T05:05:31;63.47;;;26.45;;
36923;SDS011;22841;50.252;18.688;2022-09-09T05:08:05;69.13;;;27.15;;
36923;SDS011;22841;50.252;18.688;2022-09-09T05:10:33;81.72;;;29.55;;
36923;SDS011;22841;50.252;18.688;2022-09-09T05:13:00;75.57;;;27.90;;
36923;SDS011;22841;50.252;18.688;2022-09-09T05:15:26;62.08;;;25.52;;
36923;SDS011;22841;50.252;18.688;2022-09-09T05:17:52;58.72;;;26.75;;
36923;SDS011;22841;50.252;18.688;2022-09-09T05:20:18;72.30;;;26.70;;
36923;SDS011;22841;50.252;18.688;2022-09-09T05:22:44;72.90;;;26.98;;
36923;SDS011;22841;50.252;18.688;2022-09-09T05:25:10;83.35;;;29.85;;
36923;SDS011;22841;50.252;18.688;2022-09-09T05:27:36;74.07;;;27.77;;
36923;SDS011;22841;50.252;18.688;2022-09-09T05:30:03;74.90;;;28.08;;
36923;SDS011;22841;50.252;18.688;2022-09-09T05:32:30;46.42;;;25.33;;
36923;SDS011;22841;50.252;18.688;2022-09-09T05:34:58;63.78;;;27.83;;
36923;SDS011;22841;50.252;18.688;2022-09-09T05:37:24;49.30;;;25.67;;
36923;SDS011;22841;50.252;18.688;2022-09-09T05:39:50;44.35;;;25.02;;
36923;SDS011;22841;50.252;18.688;2022-09-09T05:42:17;59.47;;;26.35;;
36923;SDS011;22841;50.252;18.688;2022-09-09T05:44:43;46.45;;;24.33;;
36923;SDS011;22841;50.252;18.688;2022-09-09T05:47:10;108.60;;;29.15;;
36923;SDS011;22841;50.252;18.688;2022-09-09T05:49:37;64.53;;;26.27;;
36923;SDS011;22841;50.252;18.688;2022-09-09T05:52:03;49.72;;;22.92;;
36923;SDS011;22841;50.252;18.688;2022-09-09T05:54:29;47.10;;;22.48;;
36923;SDS011;22841;50.252;18.688;2022-09-09T05:56:56;32.13;;;19.58;;
36923;SDS011;22841;50.252;18.688;2022-09-09T05:59:22;69.93;;;26.20;;
36923;SDS011;22841;50.252;18.688;2022-09-09T06:01:49;44.55;;;22.05;;
36923;SDS011;22841;50.252;18.688;2022-09-09T06:04:15;38.15;;;21.77;;
36923;SDS011;22841;50.252;18.688;2022-09-09T06:06:41;31.05;;;20.10;;
36923;SDS011;22841;50.252;18.688;2022-09-09T06:09:08;39.60;;;21.10;;
36923;SDS011;22841;50.252;18.688;2022-09-09T06:11:37;47.85;;;22.60;;
36923;SDS011;22841;50.252;18.688;2022-09-09T06:14:04;56.92;;;23.00;;
36923;SDS011;22841;50.252;18.688;2022-09-09T06:16:31;44.50;;;23.35;;
36923;SDS011;22841;50.252;18.688;2022-09-09T06:18:58;38.35;;;23.33;;
36923;SDS011;22841;50.252;18.688;2022-09-09T06:21:29;40.55;;;23.67;;
36923;SDS011;22841;50.252;18.688;2022-09-09T06:23:56;50.00;;;24.35;;
36923;SDS011;22841;50.252;18.688;2022-09-09T06:26:23;33.90;;;21.40;;
36923;SDS011;22841;50.252;18.688;2022-09-09T06:28:52;47.70;;;23.08;;
36923;SDS011;22841;50.252;18.688;2022-09-09T06:31:20;69.60;;;23.23;;
36923;SDS011;22841;50.252;18.688;2022-09-09T06:33:48;35.05;;;20.30;;
36923;SDS011;22841;50.252;18.688;2022-09-09T06:36:18;42.85;;;23.42;;
36923;SDS011;22841;50.252;18.688;2022-09-09T06:38:45;36.63;;;22.15;;
36923;SDS011;22841;50.252;18.688;2022-09-09T06:41:12;31.83;;;21.30;;
36923;SDS011;22841;50.252;18.688;2022-09-09T06:43:40;50.60;;;22.25;;
36923;SDS011;22841;50.252;18.688;2022-09-09T06:48:36;30.42;;;19.33;;
36923;SDS011;22841;50.252;18.688;2022-09-09T06:53:33;33.70;;;20.13;;
36923;SDS011;22841;50.252;18.688;2022-09-09T06:56:01;39.38;;;20.10;;
36923;SDS011;22841;50.252;18.688;2022-09-09T06:58:41;35.78;;;19.83;;
36923;SDS011;22841;50.252;18.688;2022-09-09T07:01:11;29.77;;;19.65;;
36923;SDS011;22841;50.252;18.688;2022-09-09T07:03:39;34.38;;;18.35;;
36923;SDS011;22841;50.252;18.688;2022-09-09T07:06:14;34.67;;;15.60;;
36923;SDS011;22841;50.252;18.688;2022-09-09T07:08:42;21.15;;;13.60;;
36923;SDS011;22841;50.252;18.688;2022-09-09T07:11:09;22.88;;;13.93;;
36923;SDS011;22841;50.252;18.688;2022-09-09T07:13:36;20.10;;;13.77;;
36923;SDS011;22841;50.252;18.688;2022-09-09T07:16:03;23.33;;;13.88;;
36923;SDS011;22841;50.252;18.688;2022-09-09T07:18:36;17.98;;;12.38;;
36923;SDS011;22841;50.252;18.688;2022-09-09T07:21:02;16.60;;;11.48;;
36923;SDS011;22841;50.252;18.688;2022-09-09T07:23:29;15.18;;;11.02;;
36923;SDS011;22841;50.252;18.688;2022-09-09T07:25:56;17.70;;;11.20;;
36923;SDS011;22841;50.252;18.688;2022-09-09T07:28:23;17.23;;;10.25;;
36923;SDS011;22841;50.252;18.688;2022-09-09T07:30:54;19.80;;;8.88;;
36923;SDS011;22841;50.252;18.688;2022-09-09T07:33:28;25.55;;;13.68;;
36923;SDS011;22841;50.252;18.688;2022-09-09T07:36:02;12.95;;;8.05;;
36923;SDS011;22841;50.252;18.688;2022-09-09T07:38:28;12.40;;;9.07;;
36923;SDS011;22841;50.252;18.688;2022-09-09T07:41:05;15.05;;;10.70;;
36923;SDS011;22841;50.252;18.688;2022-09-09T07:43:41;13.45;;;9.30;;
36923;SDS011;22841;50.252;18.688;2022-09-09T07:46:08;15.63;;;10.07;;
36923;SDS011;22841;50.252;18.688;2022-09-09T07:48:35;14.75;;;8.43;;
36923;SDS011;22841;50.252;18.688;2022-09-09T07:51:06;16.77;;;8.30;;
36923;SDS011;22841;50.252;18.688;2022-09-09T07:53:34;14.32;;;7.68;;
36923;SDS011;22841;50.252;18.688;2022-09-09T07:56:02;18.80;;;7.40;;
36923;SDS011;22841;50.252;18.688;2022-09-09T07:58:30;24.30;;;6.07;;
36923;SDS011;22841;50.252;18.688;2022-09-09T08:00:56;9.52;;;6.03;;
36923;SDS011;22841;50.252;18.688;2022-09-09T08:03:23;11.20;;;6.55;;
36923;SDS011;22841;50.252;18.688;2022-09-09T08:05:49;11.20;;;6.63;;
36923;SDS011;22841;50.252;18.688;2022-09-09T08:08:15;9.15;;;5.95;;
36923;SDS011;22841;50.252;18.688;2022-09-09T08:10:42;9.48;;;6.13;;
36923;SDS011;22841;50.252;18.688;2022-09-09T08:13:08;9.35;;;5.40;;
36923;SDS011;22841;50.252;18.688;2022-09-09T08:15:34;10.88;;;6.47;;
36923;SDS011;22841;50.252;18.688;2022-09-09T08:18:00;6.38;;;5.47;;
36923;SDS011;22841;50.252;18.688;2022-09-09T08:20:29;22.25;;;5.97;;
36923;SDS011;22841;50.252;18.688;2022-09-09T08:22:55;8.40;;;5.47;;
36923;SDS011;22841;50.252;18.688;2022-09-09T08:25:21;12.85;;;6.47;;
36923;SDS011;22841;50.252;18.688;2022-09-09T08:27:47;12.50;;;6.82;;
36923;SDS011;22841;50.252;18.688;2022-09-09T08:30:13;11.75;;;6.05;;
36923;SDS011;22841;50.252;18.688;2022-09-09T08:32:39;14.25;;;5.10;;
36923;SDS011;22841;50.252;18.688;2022-09-09T08:35:06;5.65;;;3.92;;
36923;SDS011;22841;50.252;18.688;2022-09-09T08:37:33;16.88;;;3.97;;
36923;SDS011;22841;50.252;18.688;2022-09-09T08:39:59;6.28;;;4.30;;
36923;SDS011;22841;50.252;18.688;2022-09-09T08:42:30;5.75;;;4.40;;
36923;SDS011;22841;50.252;18.688;2022-09-09T08:45:14;5.25;;;4.20;;
36923;SDS011;22841;50.252;18.688;2022-09-09T08:48:07;6.43;;;4.15;;
36923;SDS011;22841;50.252;18.688;2022-09-09T08:50:48;8.35;;;3.80;;
36923;SDS011;22841;50.252;18.688;2022-09-09T08:53:17;7.45;;;3.50;;
36923;SDS011;22841;50.252;18.688;2022-09-09T08:55:58;7.90;;;4.18;;
36923;SDS011;22841;50.252;18.688;2022-09-09T08:58:29;13.35;;;3.60;;
36923;SDS011;22841;50.252;18.688;2022-09-09T09:04:04;5.88;;;3.22;;
36923;SDS011;22841;50.252;18.688;2022-09-09T09:10:02;7.50;;;4.07;;
36923;SDS011;22841;50.252;18.688;2022-09-09T09:12:51;8.13;;;4.30;;
36923;SDS011;22841;50.252;18.688;2022-09-09T09:17:52;6.72;;;3.53;;
36923;SDS011;22841;50.252;18.688;2022-09-09T09:20:20;9.25;;;3.30;;
36923;SDS011;22841;50.252;18.688;2022-09-09T09:22:57;5.50;;;3.35;;
36923;SDS011;22841;50.252;18.688;2022-09-09T09:25:31;4.63;;;3.50;;
36923;SDS011;22841;50.252;18.688;2022-09-09T09:30:52;10.07;;;3.58;;
36923;SDS011;22841;50.252;18.688;2022-09-09T09:33:44;6.88;;;3.47;;
36923;SDS011;22841;50.252;18.688;2022-09-09T09:36:24;3.97;;;2.90;;
36923;SDS011;22841;50.252;18.688;2022-09-09T09:39:24;6.85;;;2.85;;
36923;SDS011;22841;50.252;18.688;2022-09-09T09:42:15;4.18;;;2.80;;
36923;SDS011;22841;50.252;18.688;2022-09-09T09:44:43;6.07;;;3.55;;
36923;SDS011;22841;50.252;18.688;2022-09-09T09:52:41;9.02;;;2.35;;
36923;SDS011;22841;50.252;18.688;2022-09-09T09:55:12;4.13;;;2.45;;
36923;SDS011;22841;50.252;18.688;2022-09-09T09:57:39;6.00;;;2.75;;
36923;SDS011;22841;50.252;18.688;2022-09-09T10:00:16;6.43;;;3.10;;
36923;SDS011;22841;50.252;18.688;2022-09-09T10:02:45;5.00;;;2.78;;
36923;SDS011;22841;50.252;18.688;2022-09-09T10:05:16;5.50;;;2.72;;
36923;SDS011;22841;50.252;18.688;2022-09-09T10:07:45;4.90;;;3.13;;
36923;SDS011;22841;50.252;18.688;2022-09-09T10:10:13;4.05;;;3.30;;
36923;SDS011;22841;50.252;18.688;2022-09-09T10:12:59;6.80;;;2.67;;
36923;SDS011;22841;50.252;18.688;2022-09-09T10:15:48;6.80;;;2.83;;
36923;SDS011;22841;50.252;18.688;2022-09-09T10:35:33;8.25;;;2.65;;
36923;SDS011;22841;50.252;18.688;2022-09-09T10:38:13;8.25;;;2.85;;
36923;SDS011;22841;50.252;18.688;2022-09-09T10:41:00;2.80;;;2.47;;
36923;SDS011;22841;50.252;18.688;2022-09-09T10:46:28;6.13;;;2.72;;
36923;SDS011;22841;50.252;18.688;2022-09-09T10:49:09;5.50;;;2.88;;
36923;SDS011;22841;50.252;18.688;2022-09-09T10:54:15;5.38;;;2.55;;
36923;SDS011;22841;50.252;18.688;2022-09-09T10:57:07;3.67;;;2.50;;
36923;SDS011;22841;50.252;18.688;2022-09-09T10:59:43;3.63;;;2.40;;
36923;SDS011;22841;50.252;18.688;2022-09-09T11:02:18;6.70;;;2.90;;
36923;SDS011;22841;50.252;18.688;2022-09-09T11:05:01;5.55;;;2.70;;
36923;SDS011;22841;50.252;18.688;2022-09-09T11:07:42;3.55;;;2.15;;
36923;SDS011;22841;50.252;18.688;2022-09-09T11:10:24;6.45;;;2.67;;
36923;SDS011;22841;50.252;18.688;2022-09-09T11:13:09;8.07;;;2.60;;
36923;SDS011;22841;50.252;18.688;2022-09-09T11:15:42;10.52;;;2.65;;
36923;SDS011;22841;50.252;18.688;2022-09-09T11:18:14;7.00;;;2.40;;
36923;SDS011;22841;50.252;18.688;2022-09-09T11:20:44;4.32;;;3.05;;
36923;SDS011;22841;50.252;18.688;2022-09-09T11:23:13;7.18;;;2.83;;
36923;SDS011;22841;50.252;18.688;2022-09-09T11:25:44;6.97;;;2.47;;
36923;SDS011;22841;50.252;18.688;2022-09-09T11:37:14;2.90;;;2.22;;
36923;SDS011;22841;50.252;18.688;2022-09-09T11:42:35;5.07;;;1.70;;
36923;SDS011;22841;50.252;18.688;2022-09-09T11:45:21;1.20;;;1.20;;
36923;SDS011;22841;50.252;18.688;2022-09-09T11:47:53;2.30;;;1.17;;
36923;SDS011;22841;50.252;18.688;2022-09-09T11:52:48;1.63;;;1.20;;
36923;SDS011;22841;50.252;18.688;2022-09-09T11:55:26;1.27;;;1.17;;
36923;SDS011;22841;50.252;18.688;2022-09-09T11:57:59;6.07;;;1.35;;
36923;SDS011;22841;50.252;18.688;2022-09-09T12:00:43;2.10;;;1.55;;
36923;SDS011;22841;50.252;18.688;2022-09-09T12:06:30;1.75;;;1.30;;
36923;SDS011;22841;50.252;18.688;2022-09-09T12:08:58;1.50;;;1.30;;
36923;SDS011;22841;50.252;18.688;2022-09-09T12:11:36;1.50;;;1.20;;
36923;SDS011;22841;50.252;18.688;2022-09-09T12:14:02;3.55;;;1.67;;
36923;SDS011;22841;50.252;18.688;2022-09-09T12:16:33;3.85;;;1.33;;
36923;SDS011;22841;50.252;18.688;2022-09-09T12:19:04;3.97;;;1.45;;
36923;SDS011;22841;50.252;18.688;2022-09-09T12:27:34;2.08;;;1.23;;
36923;SDS011;22841;50.252;18.688;2022-09-09T12:30:11;1.40;;;1.17;;
36923;SDS011;22841;50.252;18.688;2022-09-09T12:32:40;3.20;;;1.30;;
36923;SDS011;22841;50.252;18.688;2022-09-09T12:35:20;2.80;;;1.20;;
36923;SDS011;22841;50.252;18.688;2022-09-09T12:37:56;1.63;;;1.25;;
36923;SDS011;22841;50.252;18.688;2022-09-09T12:40:29;1.48;;;1.17;;
36923;SDS011;22841;50.252;18.688;2022-09-09T12:43:17;4.07;;;1.27;;
36923;SDS011;22841;50.252;18.688;2022-09-09T12:45:45;1.25;;;1.10;;
36923;SDS011;22841;50.252;18.688;2022-09-09T12:48:11;1.27;;;1.17;;
36923;SDS011;22841;50.252;18.688;2022-09-09T12:58:36;2.08;;;1.20;;
36923;SDS011;22841;50.252;18.688;2022-09-09T13:01:03;1.98;;;1.20;;
36923;SDS011;22841;50.252;18.688;2022-09-09T13:03:32;6.25;;;1.80;;
36923;SDS011;22841;50.252;18.688;2022-09-09T13:06:09;1.80;;;1.30;;
36923;SDS011;22841;50.252;18.688;2022-09-09T13:08:37;3.35;;;1.50;;
36923;SDS011;22841;50.252;18.688;2022-09-09T13:11:06;2.53;;;1.33;;
36923;SDS011;22841;50.252;18.688;2022-09-09T13:13:37;4.32;;;1.50;;
36923;SDS011;22841;50.252;18.688;2022-09-09T13:16:06;2.95;;;1.25;;
36923;SDS011;22841;50.252;18.688;2022-09-09T13:19:01;6.25;;;2.28;;
36923;SDS011;22841;50.252;18.688;2022-09-09T13:21:34;2.58;;;1.33;;
36923;SDS011;22841;50.252;18.688;2022-09-09T13:24:22;3.47;;;1.13;;
36923;SDS011;22841;50.252;18.688;2022-09-09T13:26:56;1.93;;;1.20;;
36923;SDS011;22841;50.252;18.688;2022-09-09T13:29:24;1.77;;;1.15;;
36923;SDS011;22841;50.252;18.688;2022-09-09T13:31:50;1.58;;;1.10;;
36923;SDS011;22841;50.252;18.688;2022-09-09T13:34:31;2.20;;;1.13;;
36923;SDS011;22841;50.252;18.688;2022-09-09T13:37:02;1.80;;;1.67;;
36923;SDS011;22841;50.252;18.688;2022-09-09T13:39:32;4.85;;;1.02;;
36923;SDS011;22841;50.252;18.688;2022-09-09T13:42:00;1.65;;;0.98;;
36923;SDS011;22841;50.252;18.688;2022-09-09T13:44:29;2.63;;;0.90;;
36923;SDS011;22841;50.252;18.688;2022-09-09T13:49:31;3.28;;;1.00;;
36923;SDS011;22841;50.252;18.688;2022-09-09T13:52:08;3.20;;;1.20;;
36923;SDS011;22841;50.252;18.688;2022-09-09T13:54:37;2.58;;;1.23;;
36923;SDS011;22841;50.252;18.688;2022-09-09T13:57:03;4.10;;;1.48;;
36923;SDS011;22841;50.252;18.688;2022-09-09T13:59:30;4.15;;;1.15;;
36923;SDS011;22841;50.252;18.688;2022-09-09T14:01:57;2.88;;;1.50;;
36923;SDS011;22841;50.252;18.688;2022-09-09T14:04:23;2.50;;;1.10;;
36923;SDS011;22841;50.252;18.688;2022-09-09T14:06:49;4.05;;;1.40;;
36923;SDS011;22841;50.252;18.688;2022-09-09T14:09:16;1.52;;;1.17;;
36923;SDS011;22841;50.252;18.688;2022-09-09T14:11:43;3.10;;;1.35;;
36923;SDS011;22841;50.252;18.688;2022-09-09T14:14:13;2.50;;;1.23;;
36923;SDS011;22841;50.252;18.688;2022-09-09T14:16:39;3.65;;;1.40;;
36923;SDS011;22841;50.252;18.688;2022-09-09T14:19:05;7.43;;;1.08;;
36923;SDS011;22841;50.252;18.688;2022-09-09T14:21:33;4.38;;;2.05;;
36923;SDS011;22841;50.252;18.688;2022-09-09T14:23:59;8.00;;;1.63;;
36923;SDS011;22841;50.252;18.688;2022-09-09T14:26:26;2.33;;;1.05;;
36923;SDS011;22841;50.252;18.688;2022-09-09T14:28:54;3.00;;;1.38;;
36923;SDS011;22841;50.252;18.688;2022-09-09T14:31:21;10.63;;;1.58;;
36923;SDS011;22841;50.252;18.688;2022-09-09T14:33:48;1.63;;;1.00;;
36923;SDS011;22841;50.252;18.688;2022-09-09T14:36:16;1.67;;;1.20;;
36923;SDS011;22841;50.252;18.688;2022-09-09T14:38:42;1.30;;;1.20;;
36923;SDS011;22841;50.252;18.688;2022-09-09T14:41:09;1.95;;;1.02;;
36923;SDS011;22841;50.252;18.688;2022-09-09T14:43:40;1.30;;;1.20;;
36923;SDS011;22841;50.252;18.688;2022-09-09T14:46:06;1.58;;;1.15;;
36923;SDS011;22841;50.252;18.688;2022-09-09T14:48:33;2.40;;;1.13;;
36923;SDS011;22841;50.252;18.688;2022-09-09T14:51:10;3.47;;;2.50;;
36923;SDS011;22841;50.252;18.688;2022-09-09T14:53:39;2.53;;;1.45;;
36923;SDS011;22841;50.252;18.688;2022-09-09T14:56:06;3.08;;;1.30;;
36923;SDS011;22841;50.252;18.688;2022-09-09T14:58:34;1.58;;;1.20;;
36923;SDS011;22841;50.252;18.688;2022-09-09T15:01:02;2.53;;;1.00;;
36923;SDS011;22841;50.252;18.688;2022-09-09T15:03:33;2.25;;;1.00;;
36923;SDS011;22841;50.252;18.688;2022-09-09T15:06:04;5.65;;;1.23;;
36923;SDS011;22841;50.252;18.688;2022-09-09T15:08:37;3.42;;;1.55;;
36923;SDS011;22841;50.252;18.688;2022-09-09T15:11:05;4.47;;;1.77;;
36923;SDS011;22841;50.252;18.688;2022-09-09T15:13:35;5.22;;;1.75;;
36923;SDS011;22841;50.252;18.688;2022-09-09T15:16:07;3.70;;;1.10;;
36923;SDS011;22841;50.252;18.688;2022-09-09T15:18:44;2.25;;;1.20;;
36923;SDS011;22841;50.252;18.688;2022-09-09T15:21:11;2.83;;;1.58;;
36923;SDS011;22841;50.252;18.688;2022-09-09T15:23:41;2.58;;;1.30;;
36923;SDS011;22841;50.252;18.688;2022-09-09T15:26:07;1.40;;;1.30;;
36923;SDS011;22841;50.252;18.688;2022-09-09T15:28:35;2.97;;;1.60;;
36923;SDS011;22841;50.252;18.688;2022-09-09T15:31:13;7.82;;;1.52;;
36923;SDS011;22841;50.252;18.688;2022-09-09T15:33:48;32.85;;;2.50;;
36923;SDS011;22841;50.252;18.688;2022-09-09T15:36:22;9.50;;;1.77;;
36923;SDS011;22841;50.252;18.688;2022-09-09T15:38:50;6.90;;;1.42;;
36923;SDS011;22841;50.252;18.688;2022-09-09T15:41:17;5.82;;;1.58;;
36923;SDS011;22841;50.252;18.688;2022-09-09T15:43:46;6.90;;;1.83;;
36923;SDS011;22841;50.252;18.688;2022-09-09T15:48:42;10.00;;;2.22;;
36923;SDS011;22841;50.252;18.688;2022-09-09T15:51:12;6.43;;;2.25;;
36923;SDS011;22841;50.252;18.688;2022-09-09T15:53:39;5.80;;;2.22;;
36923;SDS011;22841;50.252;18.688;2022-09-09T15:56:05;5.93;;;2.25;;
36923;SDS011;22841;50.252;18.688;2022-09-09T15:58:32;7.80;;;2.97;;
36923;SDS011;22841;50.252;18.688;2022-09-09T16:01:06;11.10;;;3.08;;
36923;SDS011;22841;50.252;18.688;2022-09-09T16:03:33;5.13;;;3.33;;
36923;SDS011;22841;50.252;18.688;2022-09-09T16:06:03;8.20;;;2.80;;
36923;SDS011;22841;50.252;18.688;2022-09-09T16:08:34;12.85;;;4.88;;
36923;SDS011;22841;50.252;18.688;2022-09-09T16:11:05;7.95;;;4.43;;
36923;SDS011;22841;50.252;18.688;2022-09-09T16:13:34;6.72;;;3.95;;
36923;SDS011;22841;50.252;18.688;2022-09-09T16:16:02;10.63;;;3.92;;
36923;SDS011;22841;50.252;18.688;2022-09-09T16:18:35;10.18;;;3.03;;
36923;SDS011;22841;50.252;18.688;2022-09-09T16:21:03;4.80;;;3.43;;
36923;SDS011;22841;50.252;18.688;2022-09-09T16:23:31;6.57;;;3.75;;
36923;SDS011;22841;50.252;18.688;2022-09-09T16:25:57;9.80;;;3.17;;
36923;SDS011;22841;50.252;18.688;2022-09-09T16:28:24;4.30;;;2.40;;
36923;SDS011;22841;50.252;18.688;2022-09-09T16:30:51;9.13;;;3.05;;
36923;SDS011;22841;50.252;18.688;2022-09-09T16:33:18;7.97;;;3.58;;
36923;SDS011;22841;50.252;18.688;2022-09-09T16:35:44;9.35;;;3.33;;
36923;SDS011;22841;50.252;18.688;2022-09-09T16:38:10;8.63;;;2.78;;
36923;SDS011;22841;50.252;18.688;2022-09-09T16:40:37;16.58;;;3.38;;